Time;durP1;ratioP1;P1;durP2;ratioP2;P2;SDS_P1;SDS_P2;PMS_P1;PMS_P2;Temp;Humidity;BMP_temperature;BMP_pressure;BME280_temperature;BME280_humidity;BME280_pressure;Samples;Min_cycle;Max_cycle;Signal;HPM_P1;HPM_P2
2021/03/24 00:00:36;;;;;;;10.70;8.90;;;19.50;39.20;;;;;;10409814;28;20235;-25
2021/03/24 00:05:58;;;;;;;12.00;9.77;;;19.40;39.20;;;;;;10410355;28;20217;-25
2021/03/24 00:11:20;;;;;;;11.33;10.03;;;19.40;39.20;;;;;;10409676;28;20272;-23
2021/03/24 00:16:42;;;;;;;11.50;9.50;;;19.30;39.10;;;;;;10412020;28;20292;-24
2021/03/24 00:22:05;;;;;;;12.20;10.20;;;19.20;39.10;;;;;;10410757;28;20197;-25
2021/03/24 00:27:26;;;;;;;11.50;9.83;;;19.30;39.20;;;;;;10409110;28;20727;-26
2021/03/24 00:32:48;;;;;;;10.30;9.00;;;19.30;39.20;;;;;;10409295;28;20201;-23
2021/03/24 00:38:12;;;;;;;10.60;8.73;;;19.20;38.90;;;;;;10409682;28;20233;-23
2021/03/24 00:43:34;;;;;;;11.33;9.10;;;19.20;38.90;;;;;;10410118;28;20192;-23
2021/03/24 00:48:55;;;;;;;13.07;9.10;;;19.10;38.90;;;;;;10414255;28;20221;-23
2021/03/24 00:54:18;;;;;;;13.40;10.00;;;19.20;39.00;;;;;;10417177;28;20201;-23
2021/03/24 00:59:39;;;;;;;11.57;9.93;;;19.20;39.00;;;;;;10417268;28;20218;-25
2021/03/24 01:05:04;;;;;;;12.53;9.90;;;19.10;39.00;;;;;;10416699;28;20201;-20
2021/03/24 01:10:29;;;;;;;14.10;10.70;;;19.10;39.10;;;;;;10416295;28;20231;-23
2021/03/24 01:15:50;;;;;;;11.70;10.27;;;19.10;39.20;;;;;;10416425;28;20190;-23
2021/03/24 01:21:12;;;;;;;13.97;10.70;;;19.10;39.20;;;;;;10416135;28;20565;-23
2021/03/24 01:26:34;;;;;;;14.40;11.37;;;19.10;39.20;;;;;;10416342;28;20221;-23
2021/03/24 01:31:56;;;;;;;15.80;11.37;;;19.00;39.30;;;;;;10415047;28;20209;-23
2021/03/24 01:37:17;;;;;;;14.97;13.00;;;19.00;39.50;;;;;;10415988;28;20212;-23
2021/03/24 01:42:40;;;;;;;15.13;11.83;;;18.90;39.50;;;;;;10414488;28;20205;-23
2021/03/24 01:48:07;;;;;;;15.53;13.03;;;18.90;39.70;;;;;;10414766;28;20224;-23
2021/03/24 01:53:29;;;;;;;17.00;13.43;;;18.90;39.70;;;;;;10414617;28;20190;-23
2021/03/24 01:58:52;;;;;;;16.67;13.90;;;18.90;39.70;;;;;;10413435;28;20684;-21
2021/03/24 02:04:14;;;;;;;16.03;13.70;;;19.00;39.70;;;;;;10414714;28;20197;-23
2021/03/24 02:09:42;;;;;;;17.50;13.77;;;18.90;39.70;;;;;;10456436;22;20233;-26
2021/03/24 02:15:09;;;;;;;21.80;16.27;;;18.90;39.80;;;;;;10434250;28;20197;-25
2021/03/24 02:20:35;;;;;;;20.03;16.63;;;18.80;39.80;;;;;;10424211;28;20217;-24
2021/03/24 02:26:02;;;;;;;24.80;16.73;;;18.80;40.00;;;;;;10426709;28;20209;-23
2021/03/24 02:31:27;;;;;;;21.47;16.93;;;18.80;40.10;;;;;;10454347;28;20613;-22
2021/03/24 02:36:52;;;;;;;23.20;17.60;;;18.80;40.10;;;;;;10454051;28;20189;-17
2021/03/24 02:42:15;;;;;;;23.97;18.10;;;18.80;40.10;;;;;;10466222;28;20223;-26
2021/03/24 02:47:38;;;;;;;24.63;18.67;;;18.80;40.20;;;;;;10492873;28;20216;-28
2021/03/24 02:53:01;;;;;;;22.53;18.17;;;18.80;40.30;;;;;;10493959;28;20205;-24
2021/03/24 02:58:23;;;;;;;23.80;19.77;;;18.80;40.30;;;;;;10494391;28;20216;-26
2021/03/24 03:03:50;;;;;;;24.63;18.87;;;18.80;40.30;;;;;;10494407;28;20204;-24
2021/03/24 03:09:21;;;;;;;25.67;19.67;;;18.80;40.40;;;;;;10492499;28;20216;-23
2021/03/24 03:14:47;;;;;;;26.00;19.80;;;18.80;40.50;;;;;;10494195;28;20199;-23
2021/03/24 03:20:15;;;;;;;25.87;20.73;;;18.70;40.50;;;;;;10492961;28;20211;-29
2021/03/24 03:25:39;;;;;;;27.53;21.00;;;18.80;40.50;;;;;;10482150;28;20209;-21
2021/03/24 03:31:02;;;;;;;26.20;20.43;;;18.80;40.70;;;;;;10451594;28;20247;-25
2021/03/24 03:36:27;;;;;;;26.60;21.00;;;18.80;40.70;;;;;;10451486;28;20189;-28
2021/03/24 03:41:50;;;;;;;28.37;22.10;;;18.80;40.80;;;;;;10459928;28;20679;-28
2021/03/24 03:47:13;;;;;;;28.33;21.33;;;18.80;40.70;;;;;;10492820;28;20223;-23
2021/03/24 03:52:46;;;;;;;24.70;20.70;;;18.80;40.80;;;;;;10465624;28;20278;-29
2021/03/24 03:58:15;;;;;;;30.53;21.40;;;18.70;40.80;;;;;;10450955;28;20280;-21
2021/03/24 04:03:45;;;;;;;28.23;21.80;;;18.70;40.80;;;;;;10450260;28;20695;-18
2021/03/24 04:09:09;;;;;;;27.20;21.87;;;18.80;40.90;;;;;;10449147;28;20229;-17
2021/03/24 04:14:31;;;;;;;28.60;21.70;;;18.70;40.90;;;;;;10449890;28;20193;-19
2021/03/24 04:19:54;;;;;;;29.93;22.30;;;18.70;41.00;;;;;;10449084;28;20284;-27
2021/03/24 04:25:21;;;;;;;28.50;21.70;;;18.70;41.00;;;;;;10457325;28;20205;-17
2021/03/24 04:30:47;;;;;;;28.60;23.13;;;18.70;41.00;;;;;;10457792;28;20240;-25
2021/03/24 04:36:14;;;;;;;30.50;22.67;;;18.70;41.00;;;;;;10458406;28;20258;-25
2021/03/24 04:41:40;;;;;;;31.90;23.30;;;18.70;41.10;;;;;;10464157;28;20204;-23
2021/03/24 04:47:07;;;;;;;29.37;21.90;;;18.70;41.10;;;;;;10484101;28;20216;-23
2021/03/24 04:52:33;;;;;;;28.63;21.53;;;18.80;40.90;;;;;;10456276;28;20221;-29
2021/03/24 04:57:58;;;;;;;30.00;22.40;;;18.90;40.80;;;;;;10457572;28;20679;-18
2021/03/24 05:03:26;;;;;;;30.13;23.67;;;19.00;40.80;;;;;;10457046;28;20197;-24
2021/03/24 05:08:48;;;;;;;33.60;24.40;;;18.90;40.80;;;;;;10456336;28;20217;-27
2021/03/24 05:14:21;;;;;;;29.87;22.90;;;18.80;40.90;;;;;;10455920;28;20205;-22
2021/03/24 05:19:45;;;;;;;26.53;21.97;;;18.80;41.10;;;;;;10455455;28;20221;-29
2021/03/24 05:25:16;;;;;;;30.23;23.03;;;18.80;41.20;;;;;;10455669;28;20196;-23
2021/03/24 05:30:41;;;;;;;32.00;24.40;;;18.80;41.00;;;;;;10455094;28;20216;-22
2021/03/24 05:36:09;;;;;;;31.40;23.90;;;18.90;40.90;;;;;;10454234;28;20193;-25
2021/03/24 05:41:35;;;;;;;29.70;23.53;;;19.00;40.90;;;;;;10461803;28;20212;-22
2021/03/24 05:47:19;;;;;;;30.33;23.13;;;18.90;40.90;;;;;;10496923;28;20211;-25
2021/03/24 05:52:51;;;;;;;29.03;23.30;;;18.90;40.90;;;;;;10495921;28;20216;-26
2021/03/24 05:58:34;;;;;;;33.50;24.37;;;19.00;40.90;;;;;;10478558;28;20201;-24
2021/03/24 06:04:14;;;;;;;32.97;24.33;;;19.10;40.80;;;;;;10443702;28;20216;-26
2021/03/24 06:10:06;;;;;;;28.63;24.10;;;19.00;40.80;;;;;;10434597;28;20584;-26
2021/03/24 06:15:49;;;;;;;31.07;23.83;;;19.00;40.90;;;;;;10440709;28;20208;-23
2021/03/24 06:21:20;;;;;;;28.70;23.37;;;19.00;41.00;;;;;;10453558;28;20220;-25
2021/03/24 06:27:25;;;;;;;32.07;23.17;;;19.10;41.00;;;;;;10454167;28;20722;-23
2021/03/24 06:33:09;;;;;;;29.53;22.53;;;19.10;40.90;;;;;;10452468;28;20786;-23
2021/03/24 06:38:54;;;;;;;30.90;23.50;;;19.00;41.10;;;;;;10452962;28;20220;-22
2021/03/24 06:44:53;;;;;;;29.70;23.47;;;19.00;41.10;;;;;;10457112;28;20201;-24
2021/03/24 06:51:02;;;;;;;31.10;23.13;;;19.10;41.10;;;;;;10447042;28;20228;-25
2021/03/24 06:57:00;;;;;;;29.87;23.47;;;19.10;41.00;;;;;;10451691;28;20192;-26
2021/03/24 07:02:54;;;;;;;28.27;22.03;;;19.10;41.20;;;;;;10459793;28;20233;-21
2021/03/24 07:08:28;;;;;;;37.73;28.47;;;19.20;41.50;;;;;;10481430;28;20212;-26
2021/03/24 07:14:08;;;;;;;34.63;27.90;;;19.70;40.60;;;;;;10491582;28;20299;-22
2021/03/24 07:19:50;;;;;;;34.00;25.97;;;20.00;39.80;;;;;;10460613;28;20205;-23
2021/03/24 07:25:45;;;;;;;34.33;26.57;;;20.20;39.40;;;;;;10417380;28;20670;-17
2021/03/24 07:31:35;;;;;;;28.17;23.53;;;20.30;39.10;;;;;;10452238;28;20554;-24
2021/03/24 07:37:23;;;;;;;32.00;25.00;;;20.40;39.00;;;;;;10451844;28;20254;-28
2021/03/24 07:42:59;;;;;;;29.90;24.30;;;20.60;38.90;;;;;;10467902;28;20745;-24
2021/03/24 07:48:45;;;;;;;35.67;27.30;;;20.60;38.80;;;;;;10486597;28;20720;-17
2021/03/24 07:54:15;;;;;;;38.50;29.03;;;20.70;38.60;;;;;;10461779;28;20206;-24
2021/03/24 07:59:44;;;;;;;33.80;26.60;;;20.70;38.80;;;;;;10474568;28;20212;-24
2021/03/24 08:05:19;;;;;;;35.43;27.60;;;20.80;38.70;;;;;;10463562;28;20192;-24
2021/03/24 08:10:53;;;;;;;31.77;27.17;;;20.90;38.40;;;;;;10462874;22;20233;-24
2021/03/24 08:16:43;;;;;;;40.03;32.90;;;20.90;38.40;;;;;;10438701;28;20203;-24
2021/03/24 08:22:33;;;;;;;42.03;31.23;;;20.50;39.00;;;;;;10423889;28;20221;-24
2021/03/24 08:28:02;;;;;;;40.10;32.43;;;20.30;39.80;;;;;;10406109;28;20232;-25
2021/03/24 08:33:43;;;;;;;43.57;32.07;;;20.00;40.30;;;;;;10423448;28;20218;-23
2021/03/24 08:39:26;;;;;;;40.33;31.17;;;20.00;40.60;;;;;;10421375;28;20220;-24
2021/03/24 08:44:54;;;;;;;42.43;32.57;;;19.80;41.20;;;;;;10457625;28;20196;-24
2021/03/24 08:50:20;;;;;;;41.33;34.63;;;19.90;41.80;;;;;;10464594;28;20217;-24
2021/03/24 08:55:51;;;;;;;40.67;31.90;;;20.00;41.70;;;;;;10438038;28;20201;-24
2021/03/24 09:01:46;;;;;;;47.97;37.27;;;20.00;41.80;;;;;;10417549;28;20221;-24
2021/03/24 09:07:20;;;;;;;43.50;32.77;;;19.60;41.60;;;;;;10422327;28;20285;-24
2021/03/24 09:12:48;;;;;;;39.20;31.97;;;19.60;42.30;;;;;;10415616;28;20229;-24
2021/03/24 09:18:20;;;;;;;43.53;34.40;;;19.80;41.70;;;;;;10415991;28;20192;-24
2021/03/24 09:24:15;;;;;;;47.77;35.97;;;19.50;42.70;;;;;;10450131;28;20263;-24
2021/03/24 09:29:45;;;;;;;41.27;33.57;;;19.40;42.80;;;;;;10374903;28;20225;-24
2021/03/24 09:35:29;;;;;;;47.20;34.03;;;19.40;43.30;;;;;;10394398;28;20203;-25
2021/03/24 09:40:54;;;;;;;47.30;36.17;;;19.50;43.30;;;;;;10416644;28;20640;-24
2021/03/24 09:46:34;;;;;;;45.77;35.07;;;19.30;43.40;;;;;;10455630;28;20722;-24
2021/03/24 09:52:28;;;;;;;45.33;34.73;;;19.40;43.60;;;;;;10416369;28;20215;-24
2021/03/24 09:58:18;;;;;;;40.40;32.30;;;19.30;43.20;;;;;;10362367;28;20191;-25
2021/03/24 10:03:46;;;;;;;43.13;34.27;;;19.30;43.00;;;;;;10413455;28;20283;-25
2021/03/24 10:09:17;;;;;;;48.70;34.43;;;19.50;42.90;;;;;;10412255;28;20292;-24
2021/03/24 10:14:46;;;;;;;38.63;31.23;;;19.40;42.70;;;;;;10412409;28;20277;-26
2021/03/24 10:20:16;;;;;;;41.77;31.73;;;19.30;43.10;;;;;;10412850;28;20211;-24
2021/03/24 10:25:42;;;;;;;45.30;34.03;;;19.20;43.10;;;;;;10421012;28;20193;-26
2021/03/24 10:31:12;;;;;;;39.97;31.73;;;18.90;43.20;;;;;;10449900;28;20220;-26
2021/03/24 10:36:41;;;;;;;39.80;31.30;;;18.90;43.40;;;;;;10371989;28;20197;-24
2021/03/24 10:42:15;;;;;;;37.57;31.50;;;18.90;43.80;;;;;;10408477;28;20588;-25
2021/03/24 10:47:41;;;;;;;37.43;28.57;;;18.80;43.90;;;;;;10407893;28;20292;-25
2021/03/24 10:53:08;;;;;;;35.07;26.07;;;18.80;44.30;;;;;;10398430;28;20732;-24
2021/03/24 10:58:53;;;;;;;32.10;26.13;;;18.80;44.50;;;;;;10391506;28;20565;-24
2021/03/24 11:04:25;;;;;;;28.57;22.03;;;18.80;44.10;;;;;;10419897;28;20519;-24
2021/03/24 11:09:52;;;;;;;28.73;21.33;;;18.70;43.90;;;;;;10452064;28;20347;-24
2021/03/24 11:15:21;;;;;;;27.93;23.90;;;18.70;43.60;;;;;;10452603;28;20189;-24
2021/03/24 11:20:46;;;;;;;29.97;23.00;;;18.60;42.50;;;;;;10451749;28;20208;-25
2021/03/24 11:26:38;;;;;;;26.57;21.03;;;18.50;42.70;;;;;;10436653;28;20216;-24
2021/03/24 11:32:04;;;;;;;23.87;18.67;;;18.60;42.80;;;;;;10409157;28;20636;-24
2021/03/24 11:37:42;;;;;;;21.20;18.03;;;18.70;42.90;;;;;;10409702;28;20214;-24
2021/03/24 11:43:06;;;;;;;23.03;17.87;;;18.80;42.90;;;;;;10429281;28;20236;-23
2021/03/24 11:48:53;;;;;;;25.13;17.63;;;18.80;42.70;;;;;;10426618;28;20247;-24
2021/03/24 11:54:22;;;;;;;21.17;16.33;;;18.80;42.10;;;;;;10395358;28;20197;-24
2021/03/24 11:59:53;;;;;;;22.03;16.07;;;18.90;42.50;;;;;;10398983;28;20210;-23
2021/03/24 12:05:20;;;;;;;19.37;15.20;;;18.90;42.60;;;;;;10409063;28;20251;-24
2021/03/24 12:10:43;;;;;;;22.83;16.37;;;18.90;42.30;;;;;;10408907;28;20222;-22
2021/03/24 12:16:08;;;;;;;20.97;16.40;;;18.90;42.20;;;;;;10409192;28;20584;-23
2021/03/24 12:21:34;;;;;;;20.53;15.83;;;18.90;41.90;;;;;;10410146;28;20214;-23
2021/03/24 12:27:07;;;;;;;22.37;16.17;;;18.90;42.20;;;;;;10431602;28;20205;-23
2021/03/24 12:32:32;;;;;;;20.87;15.80;;;18.90;41.80;;;;;;10449951;28;20210;-23
2021/03/24 12:38:03;;;;;;;19.37;14.07;;;19.00;42.10;;;;;;10448880;28;20275;-23
2021/03/24 12:43:27;;;;;;;18.17;13.80;;;19.00;42.10;;;;;;10399938;28;20214;-23
2021/03/24 12:48:52;;;;;;;21.30;16.07;;;19.00;42.30;;;;;;10402546;28;20277;-23
2021/03/24 12:54:15;;;;;;;16.10;13.60;;;19.00;41.70;;;;;;10386762;28;20198;-23
2021/03/24 12:59:56;;;;;;;17.60;14.13;;;19.00;41.90;;;;;;10398101;28;20747;-25
2021/03/24 13:05:30;;;;;;;11.33;8.90;;;19.00;42.50;;;;;;10411387;28;20205;-24
2021/03/24 13:10:55;;;;;;;8.30;6.07;;;19.50;41.80;;;;;;10414026;28;20533;-25
2021/03/24 13:16:26;;;;;;;9.20;5.40;;;20.20;41.20;;;;;;10453265;28;20218;-24
2021/03/24 13:22:00;;;;;;;8.03;5.47;;;20.60;40.40;;;;;;10455908;28;20687;-24
2021/03/24 13:27:37;;;;;;;5.70;4.60;;;21.00;39.70;;;;;;10433711;28;20214;-24
2021/03/24 13:33:07;;;;;;;7.90;4.20;;;21.40;39.50;;;;;;10414813;28;20595;-24
2021/03/24 13:38:36;;;;;;;6.33;5.27;;;21.60;39.20;;;;;;10414483;28;20565;-23
2021/03/24 13:44:03;;;;;;;5.17;3.77;;;21.80;38.70;;;;;;10439897;28;20216;-24
2021/03/24 13:49:31;;;;;;;5.60;4.27;;;22.00;38.60;;;;;;10455927;28;20662;-24
2021/03/24 13:55:06;;;;;;;4.93;4.00;;;22.10;38.60;;;;;;10434252;28;20198;-24
2021/03/24 14:00:36;;;;;;;8.00;4.40;;;22.20;38.60;;;;;;10413266;28;20210;-24
2021/03/24 14:06:02;;;;;;;10.00;7.03;;;22.30;38.30;;;;;;10412358;28;20190;-23
2021/03/24 14:11:36;;;;;;;9.03;6.90;;;22.00;37.80;;;;;;10412131;28;20232;-23
2021/03/24 14:17:05;;;;;;;8.47;5.47;;;21.70;38.60;;;;;;10412166;28;20226;-23
2021/03/24 14:22:34;;;;;;;6.60;5.87;;;21.40;39.40;;;;;;10411862;28;20727;-22
2021/03/24 14:28:04;;;;;;;13.20;6.80;;;21.20;39.80;;;;;;10414715;28;20213;-22
2021/03/24 14:33:35;;;;;;;12.17;9.40;;;21.20;40.10;;;;;;10413319;28;20206;-21
2021/03/24 14:39:05;;;;;;;12.13;7.03;;;21.10;40.10;;;;;;10412019;28;20190;-23
2021/03/24 14:44:50;;;;;;;10.60;6.87;;;21.10;40.30;;;;;;10444243;28;20232;-22
2021/03/24 14:50:29;;;;;;;9.70;6.57;;;21.10;40.60;;;;;;10455027;28;20615;-22
2021/03/24 14:55:55;;;;;;;9.20;6.30;;;21.10;40.70;;;;;;10421911;28;20201;-21
2021/03/24 15:01:32;;;;;;;8.90;6.23;;;21.00;40.80;;;;;;10372816;28;20202;-24
2021/03/24 15:06:55;;;;;;;8.53;6.00;;;20.90;40.80;;;;;;10415434;28;20299;-23
2021/03/24 15:12:26;;;;;;;12.10;5.37;;;20.90;41.00;;;;;;10452107;28;20587;-23
2021/03/24 15:17:58;;;;;;;9.90;5.20;;;20.50;41.90;;;;;;10450857;28;20576;-23
2021/03/24 15:23:35;;;;;;;10.73;5.30;;;20.30;42.40;;;;;;10449950;28;20227;-24
2021/03/24 15:29:07;;;;;;;9.27;5.37;;;20.10;43.10;;;;;;10410907;28;20280;-23
2021/03/24 15:34:42;;;;;;;6.90;5.10;;;19.90;43.70;;;;;;10407089;28;20194;-23
2021/03/24 15:40:19;;;;;;;7.10;5.23;;;19.70;44.20;;;;;;10407622;28;20726;-23
2021/03/24 15:45:43;;;;;;;7.50;5.07;;;19.60;44.40;;;;;;10386996;28;20631;-25
2021/03/24 15:51:07;;;;;;;6.23;4.93;;;19.50;44.60;;;;;;10410159;28;20233;-25
2021/03/24 15:56:43;;;;;;;7.37;5.07;;;19.40;44.70;;;;;;10410939;28;20675;-23
2021/03/24 16:02:18;;;;;;;9.83;5.77;;;19.40;45.00;;;;;;10409980;28;20264;-23
2021/03/24 16:07:52;;;;;;;8.60;4.90;;;19.30;45.10;;;;;;10409715;28;20213;-23
2021/03/24 16:13:27;;;;;;;12.40;6.70;;;19.30;45.10;;;;;;10408545;28;20236;-22
2021/03/24 16:19:19;;;;;;;7.33;5.13;;;19.30;45.50;;;;;;10412203;28;20220;-23
2021/03/24 16:24:48;;;;;;;7.37;5.17;;;19.20;45.70;;;;;;10419249;28;20291;-23
2021/03/24 16:30:14;;;;;;;7.20;5.00;;;19.40;45.60;;;;;;10458237;28;20216;-23
2021/03/24 16:36:21;;;;;;;7.03;4.27;;;19.50;45.80;;;;;;10457775;28;20212;-23
2021/03/24 16:42:14;;;;;;;7.03;4.50;;;19.50;45.90;;;;;;10453347;28;20683;-23
2021/03/24 16:47:56;;;;;;;7.40;4.13;;;19.60;45.90;;;;;;10454535;28;20296;-23
2021/03/24 16:53:26;;;;;;;5.23;4.27;;;19.60;45.80;;;;;;10456005;28;20557;-23
2021/03/24 16:58:54;;;;;;;4.80;3.63;;;19.70;46.00;;;;;;10420373;28;20198;-23
2021/03/24 17:04:39;;;;;;;6.63;3.77;;;19.60;46.10;;;;;;10416959;28;20200;-23
2021/03/24 17:10:20;;;;;;;5.30;4.13;;;19.50;46.60;;;;;;10416093;28;20255;-23
2021/03/24 17:15:49;;;;;;;7.07;4.33;;;19.40;47.60;;;;;;10414928;28;20216;-24
2021/03/24 17:21:21;;;;;;;6.50;4.30;;;19.40;47.10;;;;;;10414907;28;20745;-23
2021/03/24 17:26:43;;;;;;;5.37;3.93;;;19.40;47.80;;;;;;10434096;28;20263;-24
2021/03/24 17:32:22;;;;;;;9.00;4.80;;;19.40;47.90;;;;;;10454745;28;20226;-24
2021/03/24 17:38:08;;;;;;;5.53;4.17;;;19.30;47.80;;;;;;10456229;28;20223;-23
2021/03/24 17:43:37;;;;;;;5.53;4.43;;;19.30;47.90;;;;;;10456254;28;20213;-24
2021/03/24 17:49:08;;;;;;;6.77;4.77;;;19.30;48.10;;;;;;10456221;28;20271;-23
2021/03/24 17:54:40;;;;;;;6.37;4.50;;;19.20;48.00;;;;;;10413450;28;20755;-23
2021/03/24 18:00:14;;;;;;;5.90;4.13;;;19.20;47.90;;;;;;10413560;28;20237;-24
2021/03/24 18:05:46;;;;;;;5.30;3.70;;;19.20;47.80;;;;;;10416761;28;20210;-23
2021/03/24 18:11:36;;;;;;;6.40;3.60;;;19.30;47.60;;;;;;10425262;28;20225;-23
2021/03/24 18:17:01;;;;;;;7.37;4.57;;;19.50;47.40;;;;;;10372657;28;20195;-22
2021/03/24 18:22:27;;;;;;;5.33;3.83;;;19.60;47.20;;;;;;10389070;28;20222;-22
2021/03/24 18:27:58;;;;;;;5.70;4.17;;;19.60;47.00;;;;;;10413032;28;20210;-23
2021/03/24 18:33:22;;;;;;;10.97;5.00;;;19.70;47.10;;;;;;10410149;28;20418;-22
2021/03/24 18:38:49;;;;;;;7.60;5.03;;;20.40;46.40;;;;;;10410779;28;20194;-23
2021/03/24 18:44:16;;;;;;;6.57;5.00;;;19.90;46.50;;;;;;10412814;28;20205;-24
2021/03/24 18:49:39;;;;;;;8.83;5.40;;;19.70;47.00;;;;;;10440791;28;20712;-24
2021/03/24 18:55:20;;;;;;;9.97;5.67;;;19.60;47.20;;;;;;10448782;28;20697;-23
2021/03/24 19:00:52;;;;;;;7.07;5.07;;;19.60;47.20;;;;;;10414808;28;20213;-24
2021/03/24 19:06:16;;;;;;;5.87;4.50;;;19.60;47.20;;;;;;10407080;28;20584;-23
2021/03/24 19:11:40;;;;;;;5.27;4.40;;;19.50;47.20;;;;;;10409537;28;20257;-23
2021/03/24 19:17:03;;;;;;;6.63;4.80;;;19.50;47.20;;;;;;10410679;28;20283;-23
2021/03/24 19:22:28;;;;;;;7.33;4.87;;;19.50;47.20;;;;;;10407602;28;20228;-24
2021/03/24 19:27:54;;;;;;;5.83;5.13;;;19.50;47.20;;;;;;10404310;28;20496;-24
2021/03/24 19:33:19;;;;;;;7.50;4.83;;;19.50;47.30;;;;;;10362330;28;20214;-23
2021/03/24 19:38:42;;;;;;;7.33;5.50;;;19.60;47.30;;;;;;10360770;28;20723;-23
2021/03/24 19:44:27;;;;;;;7.70;5.50;;;19.50;47.50;;;;;;10419390;28;20691;-22
2021/03/24 19:49:53;;;;;;;11.60;5.97;;;19.50;47.60;;;;;;10415636;28;20218;-23
2021/03/24 19:55:17;;;;;;;8.23;5.63;;;19.50;47.70;;;;;;10403080;28;20203;-23
2021/03/24 20:00:50;;;;;;;7.93;6.80;;;19.50;47.50;;;;;;10402756;28;20216;-23
2021/03/24 20:06:22;;;;;;;7.10;6.17;;;19.50;47.50;;;;;;10407689;28;20197;-22
2021/03/24 20:11:49;;;;;;;7.03;5.93;;;19.40;47.50;;;;;;10437241;23;20456;-23
2021/03/24 20:17:19;;;;;;;8.70;5.10;;;19.50;47.60;;;;;;10429849;28;20191;-18
2021/03/24 20:22:41;;;;;;;5.77;5.13;;;20.20;46.30;;;;;;10452689;28;20258;-19
2021/03/24 20:28:05;;;;;;;6.47;5.37;;;20.80;44.90;;;;;;10447787;28;20221;-23
2021/03/24 20:33:32;;;;;;;6.77;4.17;;;20.90;44.30;;;;;;10447324;28;20217;-25
2021/03/24 20:39:04;;;;;;;5.13;4.60;;;21.20;44.00;;;;;;10447050;28;20276;-22
2021/03/24 20:44:30;;;;;;;6.80;4.40;;;21.60;43.40;;;;;;10449905;28;20236;-23
2021/03/24 20:49:52;;;;;;;4.97;4.43;;;21.90;43.00;;;;;;10490888;28;20695;-23
2021/03/24 20:55:15;;;;;;;7.27;5.07;;;22.20;42.60;;;;;;10491157;28;20698;-23
2021/03/24 21:00:40;;;;;;;4.97;4.10;;;22.30;42.30;;;;;;10460723;28;20197;-23
2021/03/24 21:06:03;;;;;;;4.10;3.70;;;22.50;42.20;;;;;;10454427;28;20197;-22
2021/03/24 21:11:26;;;;;;;5.10;4.23;;;22.60;41.90;;;;;;10456170;28;20216;-23
2021/03/24 21:16:47;;;;;;;4.63;4.17;;;22.70;41.70;;;;;;10458508;28;20210;-21
2021/03/24 21:22:12;;;;;;;4.43;3.53;;;22.80;41.50;;;;;;10456710;28;20224;-19
2021/03/24 21:27:34;;;;;;;4.10;3.70;;;22.90;41.40;;;;;;10455165;28;20221;-24
2021/03/24 21:32:56;;;;;;;4.70;4.20;;;23.00;41.30;;;;;;10455415;28;20213;-22
2021/03/24 21:38:18;;;;;;;4.40;3.97;;;22.80;40.90;;;;;;10493135;28;20193;-19
2021/03/24 21:43:41;;;;;;;5.00;4.50;;;22.40;41.80;;;;;;10472056;28;20213;-22
2021/03/24 21:49:03;;;;;;;4.83;4.33;;;22.10;42.50;;;;;;10456129;28;20224;-22
2021/03/24 21:54:26;;;;;;;5.00;4.50;;;21.80;42.90;;;;;;10468691;28;20212;-23
2021/03/24 21:59:50;;;;;;;6.93;5.67;;;21.70;43.30;;;;;;10412716;28;20735;-22
2021/03/24 22:05:14;;;;;;;6.10;5.47;;;21.50;43.60;;;;;;10413340;28;20232;-22
2021/03/24 22:10:35;;;;;;;5.60;5.00;;;21.50;43.90;;;;;;10453324;28;20213;-25
2021/03/24 22:16:08;;;;;;;5.80;5.30;;;21.40;44.00;;;;;;10436827;28;20201;-19
2021/03/24 22:21:30;;;;;;;6.27;5.40;;;21.30;44.20;;;;;;10424134;28;20271;-22
2021/03/24 22:27:01;;;;;;;7.40;6.00;;;21.20;44.20;;;;;;10411741;28;20198;-22
2021/03/24 22:32:30;;;;;;;8.93;5.83;;;21.10;44.40;;;;;;10412740;28;20209;-24
2021/03/24 22:37:54;;;;;;;6.83;5.90;;;21.10;44.50;;;;;;10414034;28;20248;-24
2021/03/24 22:43:17;;;;;;;6.63;5.10;;;21.00;44.40;;;;;;10412933;28;20209;-19
2021/03/24 22:48:51;;;;;;;6.80;5.73;;;20.60;45.00;;;;;;10412038;28;20573;-22
2021/03/24 22:54:19;;;;;;;5.87;5.23;;;20.30;45.70;;;;;;10412253;28;20221;-23
2021/03/24 22:59:41;;;;;;;5.90;5.27;;;20.10;46.80;;;;;;10412066;28;20201;-25
2021/03/24 23:05:05;;;;;;;6.77;5.80;;;20.00;46.70;;;;;;10420652;28;20274;-22
2021/03/24 23:10:28;;;;;;;6.93;6.10;;;19.90;46.90;;;;;;10410897;28;20221;-21
2021/03/24 23:15:56;;;;;;;7.93;6.17;;;19.80;47.10;;;;;;10412709;28;20673;-23
2021/03/24 23:21:20;;;;;;;8.37;5.70;;;19.70;47.20;;;;;;10410790;28;20214;-24
2021/03/24 23:26:45;;;;;;;9.57;6.37;;;19.60;47.30;;;;;;10427986;28;20197;-24
2021/03/24 23:32:09;;;;;;;7.30;6.00;;;19.60;47.50;;;;;;10452768;28;20213;-24
2021/03/24 23:37:32;;;;;;;7.40;6.10;;;19.50;47.50;;;;;;10452723;28;20738;-21
2021/03/24 23:42:54;;;;;;;8.07;5.83;;;19.50;47.60;;;;;;10433879;28;20344;-19
2021/03/24 23:48:19;;;;;;;7.93;6.10;;;19.40;47.70;;;;;;10412111;28;20217;-23
2021/03/24 23:53:41;;;;;;;6.60;5.80;;;19.40;47.80;;;;;;10410719;28;20240;-24
2021/03/24 23:59:06;;;;;;;6.70;6.00;;;19.40;47.80;;;;;;10410802;28;20198;-22
